Terminal Aerodrome Forecast
Issued by NWS Sterling, VA

Current Version | Previous Version | Graphics & Text | Print | Product List | Glossary On
Versions: 1 2 3 4 5 6 7 8 9 10 11 12 13 14
683
FTUS41 KLWX 071252 AAA
TAFMRB
TAF AMD
KMRB 071252Z 0713/0812 31008KT P6SM FEW001 BKN028
     FM071400 31008G16KT P6SM SCT050 BKN200
     FM072100 30005KT P6SM SCT200
     FM080000 VRB03KT P6SM SCT200=

USA.gov is the U.S. government's official web portal to all federal, state and local government web resources and services.